sensor_id;sensor_type;location;lat;lon;timestamp;pressure;altitude;pressure_sealevel;temperature
19568;BMP280;9930;49.240;8.548;2024-03-08T00:00:06;100446.22;;;9.96
19568;BMP280;9930;49.240;8.548;2024-03-08T00:02:37;100460.72;;;9.97
19568;BMP280;9930;49.240;8.548;2024-03-08T00:05:05;100465.06;;;9.99
19568;BMP280;9930;49.240;8.548;2024-03-08T00:07:31;100456.91;;;9.87
19568;BMP280;9930;49.240;8.548;2024-03-08T00:09:58;100456.00;;;9.85
19568;BMP280;9930;49.240;8.548;2024-03-08T00:12:23;100473.94;;;9.88
19568;BMP280;9930;49.240;8.548;2024-03-08T00:14:50;100465.25;;;9.83
19568;BMP280;9930;49.240;8.548;2024-03-08T00:17:16;100453.94;;;9.77
19568;BMP280;9930;49.240;8.548;2024-03-08T00:19:41;100459.03;;;9.77
19568;BMP280;9930;49.240;8.548;2024-03-08T00:22:07;100447.72;;;9.70
19568;BMP280;9930;49.240;8.548;2024-03-08T00:24:36;100455.34;;;9.70
19568;BMP280;9930;49.240;8.548;2024-03-08T00:27:02;100454.22;;;9.63
19568;BMP280;9930;49.240;8.548;2024-03-08T00:29:30;100463.81;;;9.69
19568;BMP280;9930;49.240;8.548;2024-03-08T00:31:55;100458.59;;;9.66
19568;BMP280;9930;49.240;8.548;2024-03-08T00:34:21;100445.53;;;9.58
19568;BMP280;9930;49.240;8.548;2024-03-08T00:36:47;100452.44;;;9.61
19568;BMP280;9930;49.240;8.548;2024-03-08T00:39:13;100455.59;;;9.55
19568;BMP280;9930;49.240;8.548;2024-03-08T00:41:38;100437.25;;;9.43
19568;BMP280;9930;49.240;8.548;2024-03-08T00:44:04;100439.72;;;9.41
19568;BMP280;9930;49.240;8.548;2024-03-08T00:46:30;100458.53;;;9.45
19568;BMP280;9930;49.240;8.548;2024-03-08T00:48:57;100450.59;;;9.37
19568;BMP280;9930;49.240;8.548;2024-03-08T00:51:22;100447.97;;;9.36
19568;BMP280;9930;49.240;8.548;2024-03-08T00:53:48;100436.47;;;9.25
19568;BMP280;9930;49.240;8.548;2024-03-08T00:56:14;100436.31;;;9.22
19568;BMP280;9930;49.240;8.548;2024-03-08T00:58:39;100442.47;;;9.27
19568;BMP280;9930;49.240;8.548;2024-03-08T01:01:05;100442.41;;;9.25
19568;BMP280;9930;49.240;8.548;2024-03-08T01:03:31;100424.16;;;9.15
19568;BMP280;9930;49.240;8.548;2024-03-08T01:05:57;100420.59;;;9.11
19568;BMP280;9930;49.240;8.548;2024-03-08T01:08:23;100424.75;;;9.09
19568;BMP280;9930;49.240;8.548;2024-03-08T01:10:49;100432.59;;;9.14
19568;BMP280;9930;49.240;8.548;2024-03-08T01:13:17;100430.78;;;9.11
19568;BMP280;9930;49.240;8.548;2024-03-08T01:15:45;100428.09;;;9.08
19568;BMP280;9930;49.240;8.548;2024-03-08T01:18:11;100420.25;;;9.03
19568;BMP280;9930;49.240;8.548;2024-03-08T01:20:37;100422.88;;;9.05
19568;BMP280;9930;49.240;8.548;2024-03-08T01:23:03;100410.56;;;8.95
19568;BMP280;9930;49.240;8.548;2024-03-08T01:25:35;100422.53;;;8.97
19568;BMP280;9930;49.240;8.548;2024-03-08T01:28:01;100406.94;;;8.90
19568;BMP280;9930;49.240;8.548;2024-03-08T01:30:27;100416.25;;;8.89
19568;BMP280;9930;49.240;8.548;2024-03-08T01:32:53;100395.50;;;8.80
19568;BMP280;9930;49.240;8.548;2024-03-08T01:35:19;100407.53;;;8.84
19568;BMP280;9930;49.240;8.548;2024-03-08T01:37:47;100382.50;;;8.74
19568;BMP280;9930;49.240;8.548;2024-03-08T01:40:15;100383.09;;;8.68
19568;BMP280;9930;49.240;8.548;2024-03-08T01:42:42;100384.78;;;8.68
19568;BMP280;9930;49.240;8.548;2024-03-08T01:45:08;100386.53;;;8.69
19568;BMP280;9930;49.240;8.548;2024-03-08T01:47:35;100387.47;;;8.71
19568;BMP280;9930;49.240;8.548;2024-03-08T01:50:02;100376.06;;;8.63
19568;BMP280;9930;49.240;8.548;2024-03-08T01:52:32;100395.09;;;8.71
19568;BMP280;9930;49.240;8.548;2024-03-08T01:55:04;100381.16;;;8.63
19568;BMP280;9930;49.240;8.548;2024-03-08T01:57:33;100370.72;;;8.57
19568;BMP280;9930;49.240;8.548;2024-03-08T02:00:01;100383.63;;;8.61
19568;BMP280;9930;49.240;8.548;2024-03-08T02:02:32;100363.69;;;8.51
19568;BMP280;9930;49.240;8.548;2024-03-08T02:05:01;100366.22;;;8.51
19568;BMP280;9930;49.240;8.548;2024-03-08T02:07:26;100364.63;;;8.53
19568;BMP280;9930;49.240;8.548;2024-03-08T02:09:52;100352.44;;;8.46
19568;BMP280;9930;49.240;8.548;2024-03-08T02:12:18;100361.06;;;8.50
19568;BMP280;9930;49.240;8.548;2024-03-08T02:14:46;100340.41;;;8.42
19568;BMP280;9930;49.240;8.548;2024-03-08T02:17:12;100354.19;;;8.47
19568;BMP280;9930;49.240;8.548;2024-03-08T02:19:38;100337.59;;;8.36
19568;BMP280;9930;49.240;8.548;2024-03-08T02:22:05;100345.41;;;8.40
19568;BMP280;9930;49.240;8.548;2024-03-08T02:24:32;100333.06;;;8.30
19568;BMP280;9930;49.240;8.548;2024-03-08T02:26:58;100347.75;;;8.36
19568;BMP280;9930;49.240;8.548;2024-03-08T02:29:24;100341.72;;;8.34
19568;BMP280;9930;49.240;8.548;2024-03-08T02:31:53;100340.75;;;8.32
19568;BMP280;9930;49.240;8.548;2024-03-08T02:34:18;100333.94;;;8.31
19568;BMP280;9930;49.240;8.548;2024-03-08T02:36:45;100324.28;;;8.24
19568;BMP280;9930;49.240;8.548;2024-03-08T02:39:12;100333.72;;;8.26
19568;BMP280;9930;49.240;8.548;2024-03-08T02:41:37;100335.31;;;8.24
19568;BMP280;9930;49.240;8.548;2024-03-08T02:44:04;100330.97;;;8.22
19568;BMP280;9930;49.240;8.548;2024-03-08T02:46:30;100333.38;;;8.19
19568;BMP280;9930;49.240;8.548;2024-03-08T02:48:56;100330.84;;;8.19
19568;BMP280;9930;49.240;8.548;2024-03-08T02:51:22;100331.56;;;8.16
19568;BMP280;9930;49.240;8.548;2024-03-08T02:53:48;100327.94;;;8.11
19568;BMP280;9930;49.240;8.548;2024-03-08T02:56:17;100326.22;;;8.10
19568;BMP280;9930;49.240;8.548;2024-03-08T02:58:43;100308.81;;;8.00
19568;BMP280;9930;49.240;8.548;2024-03-08T03:01:09;100313.00;;;7.99
19568;BMP280;9930;49.240;8.548;2024-03-08T03:03:36;100313.81;;;7.98
19568;BMP280;9930;49.240;8.548;2024-03-08T03:06:02;100317.38;;;8.02
19568;BMP280;9930;49.240;8.548;2024-03-08T03:08:28;100312.13;;;7.99
19568;BMP280;9930;49.240;8.548;2024-03-08T03:10:54;100311.28;;;7.98
19568;BMP280;9930;49.240;8.548;2024-03-08T03:13:22;100307.72;;;7.95
19568;BMP280;9930;49.240;8.548;2024-03-08T03:15:48;100311.84;;;7.93
19568;BMP280;9930;49.240;8.548;2024-03-08T03:18:14;100305.03;;;7.92
19568;BMP280;9930;49.240;8.548;2024-03-08T03:20:41;100299.59;;;7.84
19568;BMP280;9930;49.240;8.548;2024-03-08T03:23:08;100293.44;;;7.79
19568;BMP280;9930;49.240;8.548;2024-03-08T03:25:35;100292.56;;;7.78
19568;BMP280;9930;49.240;8.548;2024-03-08T03:28:02;100302.22;;;7.86
19568;BMP280;9930;49.240;8.548;2024-03-08T03:30:28;100301.28;;;7.84
19568;BMP280;9930;49.240;8.548;2024-03-08T03:33:02;100286.56;;;7.76
19568;BMP280;9930;49.240;8.548;2024-03-08T03:35:32;100298.59;;;7.80
19568;BMP280;9930;49.240;8.548;2024-03-08T03:37:58;100302.72;;;7.78
19568;BMP280;9930;49.240;8.548;2024-03-08T03:40:42;100293.31;;;7.76
19568;BMP280;9930;49.240;8.548;2024-03-08T03:43:10;100280.03;;;7.64
19568;BMP280;9930;49.240;8.548;2024-03-08T03:45:36;100299.84;;;7.71
19568;BMP280;9930;49.240;8.548;2024-03-08T03:48:04;100284.25;;;7.63
19568;BMP280;9930;49.240;8.548;2024-03-08T03:50:32;100295.47;;;7.68
19568;BMP280;9930;49.240;8.548;2024-03-08T03:53:00;100285.97;;;7.64
19568;BMP280;9930;49.240;8.548;2024-03-08T03:55:26;100287.94;;;7.70
19568;BMP280;9930;49.240;8.548;2024-03-08T03:57:52;100265.31;;;7.57
19568;BMP280;9930;49.240;8.548;2024-03-08T04:00:18;100279.38;;;7.68
19568;BMP280;9930;49.240;8.548;2024-03-08T04:02:44;100271.41;;;7.60
19568;BMP280;9930;49.240;8.548;2024-03-08T04:05:11;100269.66;;;7.59
19568;BMP280;9930;49.240;8.548;2024-03-08T04:07:38;100272.41;;;7.64
19568;BMP280;9930;49.240;8.548;2024-03-08T04:10:07;100264.44;;;7.56
19568;BMP280;9930;49.240;8.548;2024-03-08T04:12:34;100279.09;;;7.62
19568;BMP280;9930;49.240;8.548;2024-03-08T04:15:00;100266.25;;;7.59
19568;BMP280;9930;49.240;8.548;2024-03-08T04:17:26;100264.09;;;7.48
19568;BMP280;9930;49.240;8.548;2024-03-08T04:19:53;100272.78;;;7.54
19568;BMP280;9930;49.240;8.548;2024-03-08T04:22:19;100270.09;;;7.51
19568;BMP280;9930;49.240;8.548;2024-03-08T04:24:45;100259.53;;;7.41
19568;BMP280;9930;49.240;8.548;2024-03-08T04:27:12;100264.88;;;7.47
19568;BMP280;9930;49.240;8.548;2024-03-08T04:29:38;100265.59;;;7.45
19568;BMP280;9930;49.240;8.548;2024-03-08T04:32:07;100260.31;;;7.40
19568;BMP280;9930;49.240;8.548;2024-03-08T04:34:35;100257.63;;;7.37
19568;BMP280;9930;49.240;8.548;2024-03-08T04:37:02;100262.94;;;7.42
19568;BMP280;9930;49.240;8.548;2024-03-08T04:39:31;100251.91;;;7.41
19568;BMP280;9930;49.240;8.548;2024-03-08T04:42:02;100264.53;;;7.40
19568;BMP280;9930;49.240;8.548;2024-03-08T04:44:37;100240.38;;;7.30
19568;BMP280;9930;49.240;8.548;2024-03-08T04:47:06;100261.03;;;7.38
19568;BMP280;9930;49.240;8.548;2024-03-08T04:49:33;100239.50;;;7.30
19568;BMP280;9930;49.240;8.548;2024-03-08T04:52:03;100248.13;;;7.33
19568;BMP280;9930;49.240;8.548;2024-03-08T04:54:29;100246.25;;;7.29
19568;BMP280;9930;49.240;8.548;2024-03-08T04:56:55;100231.53;;;7.22
19568;BMP280;9930;49.240;8.548;2024-03-08T04:59:21;100228.84;;;7.19
19568;BMP280;9930;49.240;8.548;2024-03-08T05:01:47;100241.75;;;7.24
19568;BMP280;9930;49.240;8.548;2024-03-08T05:04:13;100233.94;;;7.19
19568;BMP280;9930;49.240;8.548;2024-03-08T05:06:39;100231.38;;;7.19
19568;BMP280;9930;49.240;8.548;2024-03-08T05:09:05;100212.31;;;7.09
19568;BMP280;9930;49.240;8.548;2024-03-08T05:11:51;100250.38;;;7.27
19568;BMP280;9930;49.240;8.548;2024-03-08T05:14:17;100223.78;;;7.19
19568;BMP280;9930;49.240;8.548;2024-03-08T05:16:46;100234.06;;;7.22
19568;BMP280;9930;49.240;8.548;2024-03-08T05:19:16;100235.66;;;7.20
19568;BMP280;9930;49.240;8.548;2024-03-08T05:21:51;100227.75;;;7.14
19568;BMP280;9930;49.240;8.548;2024-03-08T05:24:21;100224.22;;;7.10
19568;BMP280;9930;49.240;8.548;2024-03-08T05:26:46;100221.53;;;7.07
19568;BMP280;9930;49.240;8.548;2024-03-08T05:29:13;100222.38;;;7.08
19568;BMP280;9930;49.240;8.548;2024-03-08T05:31:50;100232.84;;;7.14
19568;BMP280;9930;49.240;8.548;2024-03-08T05:34:18;100220.81;;;7.10
19568;BMP280;9930;49.240;8.548;2024-03-08T05:36:48;100237.69;;;7.09
19568;BMP280;9930;49.240;8.548;2024-03-08T05:39:20;100222.16;;;7.03
19568;BMP280;9930;49.240;8.548;2024-03-08T05:41:46;100237.69;;;7.09
19568;BMP280;9930;49.240;8.548;2024-03-08T05:44:13;100219.47;;;7.00
19568;BMP280;9930;49.240;8.548;2024-03-08T05:46:39;100237.59;;;7.08
19568;BMP280;9930;49.240;8.548;2024-03-08T05:49:06;100216.16;;;7.01
19568;BMP280;9930;49.240;8.548;2024-03-08T05:51:33;100225.78;;;7.08
19568;BMP280;9930;49.240;8.548;2024-03-08T05:54:07;100223.19;;;7.07
19568;BMP280;9930;49.240;8.548;2024-03-08T05:56:36;100225.66;;;7.05
19568;BMP280;9930;49.240;8.548;2024-03-08T05:59:02;100225.78;;;7.08
19568;BMP280;9930;49.240;8.548;2024-03-08T06:01:28;100223.19;;;7.07
19568;BMP280;9930;49.240;8.548;2024-03-08T06:03:56;100197.31;;;6.96
19568;BMP280;9930;49.240;8.548;2024-03-08T06:06:23;100216.38;;;7.06
19568;BMP280;9930;49.240;8.548;2024-03-08T06:08:50;100217.19;;;7.05
19568;BMP280;9930;49.240;8.548;2024-03-08T06:11:17;100211.00;;;7.00
19568;BMP280;9930;49.240;8.548;2024-03-08T06:13:47;100217.97;;;7.04
19568;BMP280;9930;49.240;8.548;2024-03-08T06:16:13;100219.72;;;7.05
19568;BMP280;9930;49.240;8.548;2024-03-08T06:18:39;100200.66;;;6.95
19568;BMP280;9930;49.240;8.548;2024-03-08T06:21:06;100193.13;;;6.97
19568;BMP280;9930;49.240;8.548;2024-03-08T06:23:35;100224.94;;;7.08
19568;BMP280;9930;49.240;8.548;2024-03-08T06:26:04;100206.81;;;7.00
19568;BMP280;9930;49.240;8.548;2024-03-08T06:28:31;100212.97;;;7.05
19568;BMP280;9930;49.240;8.548;2024-03-08T06:30:59;100222.25;;;7.05
19568;BMP280;9930;49.240;8.548;2024-03-08T06:33:25;100205.28;;;7.04
19568;BMP280;9930;49.240;8.548;2024-03-08T06:35:54;100213.34;;;7.13
19568;BMP280;9930;49.240;8.548;2024-03-08T06:38:23;100210.81;;;7.13
19568;BMP280;9930;49.240;8.548;2024-03-08T06:40:49;100211.69;;;7.13
19568;BMP280;9930;49.240;8.548;2024-03-08T06:43:17;100211.69;;;7.13
19568;BMP280;9930;49.240;8.548;2024-03-08T06:45:44;100224.72;;;7.21
19568;BMP280;9930;49.240;8.548;2024-03-08T06:48:17;100211.03;;;7.18
19568;BMP280;9930;49.240;8.548;2024-03-08T06:50:45;100225.81;;;7.26
19568;BMP280;9930;49.240;8.548;2024-03-08T06:53:12;100207.03;;;7.23
19568;BMP280;9930;49.240;8.548;2024-03-08T06:55:38;100213.28;;;7.29
19568;BMP280;9930;49.240;8.548;2024-03-08T06:58:04;100222.41;;;7.43
19568;BMP280;9930;49.240;8.548;2024-03-08T07:00:30;100218.19;;;7.44
19568;BMP280;9930;49.240;8.548;2024-03-08T07:02:56;100219.13;;;7.46
19568;BMP280;9930;49.240;8.548;2024-03-08T07:05:30;100223.84;;;7.56
19568;BMP280;9930;49.240;8.548;2024-03-08T07:07:56;100224.78;;;7.58
19568;BMP280;9930;49.240;8.548;2024-03-08T07:10:22;100221.50;;;7.61
19568;BMP280;9930;49.240;8.548;2024-03-08T07:12:53;100219.06;;;7.62
19568;BMP280;9930;49.240;8.548;2024-03-08T07:15:21;100219.19;;;7.65
19568;BMP280;9930;49.240;8.548;2024-03-08T07:17:49;100191.19;;;7.64
19568;BMP280;9930;49.240;8.548;2024-03-08T07:20:15;100198.22;;;7.69
19568;BMP280;9930;49.240;8.548;2024-03-08T07:22:48;100199.44;;;7.77
19568;BMP280;9930;49.240;8.548;2024-03-08T07:25:14;100193.69;;;7.82
19568;BMP280;9930;49.240;8.548;2024-03-08T07:27:54;100194.78;;;7.87
19568;BMP280;9930;49.240;8.548;2024-03-08T07:30:24;100191.66;;;7.92
19568;BMP280;9930;49.240;8.548;2024-03-08T07:33:09;100191.03;;;7.98
19568;BMP280;9930;49.240;8.548;2024-03-08T07:35:38;100193.19;;;8.08
19568;BMP280;9930;49.240;8.548;2024-03-08T07:38:05;100186.84;;;8.18
19568;BMP280;9930;49.240;8.548;2024-03-08T07:40:44;100188.72;;;8.22
19568;BMP280;9930;49.240;8.548;2024-03-08T07:43:12;100190.66;;;8.27
19568;BMP280;9930;49.240;8.548;2024-03-08T07:45:38;100197.75;;;8.34
19568;BMP280;9930;49.240;8.548;2024-03-08T07:48:06;100185.25;;;8.39
19568;BMP280;9930;49.240;8.548;2024-03-08T07:50:40;100196.88;;;8.53
19568;BMP280;9930;49.240;8.548;2024-03-08T07:53:07;100184.16;;;8.53
19568;BMP280;9930;49.240;8.548;2024-03-08T07:55:36;100169.97;;;8.58
19568;BMP280;9930;49.240;8.548;2024-03-08T07:58:02;100179.59;;;8.65
19568;BMP280;9930;49.240;8.548;2024-03-08T08:00:31;100192.63;;;8.73
19568;BMP280;9930;49.240;8.548;2024-03-08T08:02:57;100187.72;;;8.77
19568;BMP280;9930;49.240;8.548;2024-03-08T08:05:23;100180.22;;;8.81
19568;BMP280;9930;49.240;8.548;2024-03-08T08:07:49;100180.41;;;8.85
19568;BMP280;9930;49.240;8.548;2024-03-08T08:10:15;100167.81;;;8.88
19568;BMP280;9930;49.240;8.548;2024-03-08T08:12:50;100173.88;;;8.92
19568;BMP280;9930;49.240;8.548;2024-03-08T08:15:17;100183.00;;;9.07
19568;BMP280;9930;49.240;8.548;2024-03-08T08:17:44;100181.56;;;9.14
19568;BMP280;9930;49.240;8.548;2024-03-08T08:20:11;100179.38;;;9.23
19568;BMP280;9930;49.240;8.548;2024-03-08T08:22:42;100184.72;;;9.29
19568;BMP280;9930;49.240;8.548;2024-03-08T08:25:10;100172.03;;;9.31
19568;BMP280;9930;49.240;8.548;2024-03-08T08:27:46;100165.56;;;9.39
19568;BMP280;9930;49.240;8.548;2024-03-08T08:30:12;100159.91;;;9.46
19568;BMP280;9930;49.240;8.548;2024-03-08T08:32:39;100162.78;;;9.55
19568;BMP280;9930;49.240;8.548;2024-03-08T08:35:06;100160.53;;;9.63
19568;BMP280;9930;49.240;8.548;2024-03-08T08:37:33;100164.28;;;9.72
19568;BMP280;9930;49.240;8.548;2024-03-08T08:40:01;100167.06;;;9.79
19568;BMP280;9930;49.240;8.548;2024-03-08T08:42:31;100165.72;;;9.88
19568;BMP280;9930;49.240;8.548;2024-03-08T08:44:57;100156.63;;;9.95
19568;BMP280;9930;49.240;8.548;2024-03-08T08:47:23;100139.59;;;9.94
19568;BMP280;9930;49.240;8.548;2024-03-08T08:49:49;100145.94;;;10.05
19568;BMP280;9930;49.240;8.548;2024-03-08T08:52:16;100135.63;;;10.02
19568;BMP280;9930;49.240;8.548;2024-03-08T08:54:43;100154.72;;;10.13
19568;BMP280;9930;49.240;8.548;2024-03-08T08:57:10;100134.28;;;10.12
19568;BMP280;9930;49.240;8.548;2024-03-08T08:59:38;100133.75;;;10.20
19568;BMP280;9930;49.240;8.548;2024-03-08T09:02:07;100130.63;;;10.27
19568;BMP280;9930;49.240;8.548;2024-03-08T09:04:34;100142.00;;;10.37
19568;BMP280;9930;49.240;8.548;2024-03-08T09:07:01;100149.81;;;10.43
19568;BMP280;9930;49.240;8.548;2024-03-08T09:09:27;100137.22;;;10.48
19568;BMP280;9930;49.240;8.548;2024-03-08T09:11:53;100127.03;;;10.48
19568;BMP280;9930;49.240;8.548;2024-03-08T09:14:20;100136.66;;;10.56
19568;BMP280;9930;49.240;8.548;2024-03-08T09:16:46;100131.59;;;10.58
19568;BMP280;9930;49.240;8.548;2024-03-08T09:19:13;100132.47;;;10.58
19568;BMP280;9930;49.240;8.548;2024-03-08T09:21:39;100135.88;;;10.59
19568;BMP280;9930;49.240;8.548;2024-03-08T09:24:06;100116.16;;;10.53
19568;BMP280;9930;49.240;8.548;2024-03-08T09:26:34;100118.84;;;10.58
19568;BMP280;9930;49.240;8.548;2024-03-08T09:29:00;100127.69;;;10.67
19568;BMP280;9930;49.240;8.548;2024-03-08T09:31:26;100119.22;;;10.68
19568;BMP280;9930;49.240;8.548;2024-03-08T09:33:52;100114.16;;;10.70
19568;BMP280;9930;49.240;8.548;2024-03-08T09:36:17;100103.28;;;10.76
19568;BMP280;9930;49.240;8.548;2024-03-08T09:38:43;100099.91;;;10.77
19568;BMP280;9930;49.240;8.548;2024-03-08T09:41:09;100112.97;;;10.86
19568;BMP280;9930;49.240;8.548;2024-03-08T09:43:38;100118.97;;;10.88
19568;BMP280;9930;49.240;8.548;2024-03-08T09:46:05;100102.66;;;10.83
19568;BMP280;9930;49.240;8.548;2024-03-08T09:48:32;100116.47;;;10.89
19568;BMP280;9930;49.240;8.548;2024-03-08T09:50:58;100107.91;;;10.87
19568;BMP280;9930;49.240;8.548;2024-03-08T09:53:24;100112.13;;;10.87
19568;BMP280;9930;49.240;8.548;2024-03-08T09:55:52;100092.22;;;10.75
19568;BMP280;9930;49.240;8.548;2024-03-08T09:58:18;100093.28;;;10.82
19568;BMP280;9930;49.240;8.548;2024-03-08T10:00:54;100091.69;;;10.85
19568;BMP280;9930;49.240;8.548;2024-03-08T10:03:23;100094.63;;;10.97
19568;BMP280;9930;49.240;8.548;2024-03-08T10:05:49;100080.91;;;10.94
19568;BMP280;9930;49.240;8.548;2024-03-08T10:08:14;100092.94;;;10.98
19568;BMP280;9930;49.240;8.548;2024-03-08T10:10:40;100089.69;;;11.03
19568;BMP280;9930;49.240;8.548;2024-03-08T10:13:09;100076.69;;;10.96
19568;BMP280;9930;49.240;8.548;2024-03-08T10:15:37;100073.28;;;10.95
19568;BMP280;9930;49.240;8.548;2024-03-08T10:18:06;100067.41;;;10.98
19568;BMP280;9930;49.240;8.548;2024-03-08T10:20:33;100070.06;;;11.01
19568;BMP280;9930;49.240;8.548;2024-03-08T10:23:03;100084.88;;;11.13
19568;BMP280;9930;49.240;8.548;2024-03-08T10:25:31;100079.72;;;11.11
19568;BMP280;9930;49.240;8.548;2024-03-08T10:27:57;100073.59;;;11.06
19568;BMP280;9930;49.240;8.548;2024-03-08T10:30:23;100072.88;;;11.10
19568;BMP280;9930;49.240;8.548;2024-03-08T10:32:49;100060.94;;;11.09
19568;BMP280;9930;49.240;8.548;2024-03-08T10:35:15;100065.38;;;11.15
19568;BMP280;9930;49.240;8.548;2024-03-08T10:37:49;100048.50;;;11.20
19568;BMP280;9930;49.240;8.548;2024-03-08T10:40:20;100051.28;;;11.27
19568;BMP280;9930;49.240;8.548;2024-03-08T10:43:14;100061.69;;;11.35
19568;BMP280;9930;49.240;8.548;2024-03-08T10:45:47;100041.16;;;11.30
19568;BMP280;9930;49.240;8.548;2024-03-08T10:48:30;100049.13;;;11.41
19568;BMP280;9930;49.240;8.548;2024-03-08T10:51:03;100054.34;;;11.46
19568;BMP280;9930;49.240;8.548;2024-03-08T10:53:30;100042.31;;;11.42
19568;BMP280;9930;49.240;8.548;2024-03-08T10:55:57;100048.41;;;11.47
19568;BMP280;9930;49.240;8.548;2024-03-08T10:58:26;100033.06;;;11.45
19568;BMP280;9930;49.240;8.548;2024-03-08T11:00:56;100038.28;;;11.50
19568;BMP280;9930;49.240;8.548;2024-03-08T11:08:43;100041.25;;;11.65
19568;BMP280;9930;49.240;8.548;2024-03-08T11:13:56;100019.84;;;11.60
19568;BMP280;9930;49.240;8.548;2024-03-08T11:21:43;100017.81;;;11.78
19568;BMP280;9930;49.240;8.548;2024-03-08T11:24:13;100010.31;;;11.84
19568;BMP280;9930;49.240;8.548;2024-03-08T11:26:40;100002.88;;;11.93
19568;BMP280;9930;49.240;8.548;2024-03-08T11:29:38;100015.81;;;11.99
19568;BMP280;9930;49.240;8.548;2024-03-08T11:32:09;100008.19;;;12.01
19568;BMP280;9930;49.240;8.548;2024-03-08T11:34:46;100008.25;;;12.04
19568;BMP280;9930;49.240;8.548;2024-03-08T11:37:20;100010.09;;;12.10
19568;BMP280;9930;49.240;8.548;2024-03-08T11:39:48;100000.84;;;12.15
19568;BMP280;9930;49.240;8.548;2024-03-08T11:42:19;99988.09;;;12.16
19568;BMP280;9930;49.240;8.548;2024-03-08T11:44:46;99990.72;;;12.18
19568;BMP280;9930;49.240;8.548;2024-03-08T11:47:14;99986.41;;;12.17
19568;BMP280;9930;49.240;8.548;2024-03-08T11:49:40;99983.19;;;12.24
19568;BMP280;9930;49.240;8.548;2024-03-08T11:52:18;99988.50;;;12.33
19568;BMP280;9930;49.240;8.548;2024-03-08T11:54:52;99970.53;;;12.30
19568;BMP280;9930;49.240;8.548;2024-03-08T11:57:23;99970.88;;;12.44
19568;BMP280;9930;49.240;8.548;2024-03-08T11:59:56;99978.53;;;12.44
19568;BMP280;9930;49.240;8.548;2024-03-08T12:02:33;99953.63;;;12.35
19568;BMP280;9930;49.240;8.548;2024-03-08T12:05:02;99946.81;;;12.36
19568;BMP280;9930;49.240;8.548;2024-03-08T12:07:35;99950.19;;;12.35
19568;BMP280;9930;49.240;8.548;2024-03-08T12:10:18;99963.91;;;12.38
19568;BMP280;9930;49.240;8.548;2024-03-08T12:12:53;99952.06;;;12.42
19568;BMP280;9930;49.240;8.548;2024-03-08T12:15:23;99941.91;;;12.45
19568;BMP280;9930;49.240;8.548;2024-03-08T12:17:52;99933.53;;;12.52
19568;BMP280;9930;49.240;8.548;2024-03-08T12:20:23;99937.09;;;12.58
19568;BMP280;9930;49.240;8.548;2024-03-08T12:22:53;99935.50;;;12.63
19568;BMP280;9930;49.240;8.548;2024-03-08T12:25:19;99918.31;;;12.58
19568;BMP280;9930;49.240;8.548;2024-03-08T12:27:46;99929.69;;;12.71
19568;BMP280;9930;49.240;8.548;2024-03-08T12:30:26;99918.44;;;12.64
19568;BMP280;9930;49.240;8.548;2024-03-08T12:32:58;99920.22;;;12.67
19568;BMP280;9930;49.240;8.548;2024-03-08T12:35:29;99902.19;;;12.60
19568;BMP280;9930;49.240;8.548;2024-03-08T12:37:57;99900.44;;;12.59
19568;BMP280;9930;49.240;8.548;2024-03-08T12:40:31;99898.91;;;12.68
19568;BMP280;9930;49.240;8.548;2024-03-08T12:43:01;99885.38;;;12.73
19568;BMP280;9930;49.240;8.548;2024-03-08T12:45:32;99878.59;;;12.75
19568;BMP280;9930;49.240;8.548;2024-03-08T12:47:58;99894.94;;;12.82
19568;BMP280;9930;49.240;8.548;2024-03-08T12:50:25;99883.91;;;12.84
19568;BMP280;9930;49.240;8.548;2024-03-08T12:52:51;99882.22;;;12.86
19568;BMP280;9930;49.240;8.548;2024-03-08T12:55:19;99872.06;;;12.89
19568;BMP280;9930;49.240;8.548;2024-03-08T12:57:45;99857.41;;;12.82
19568;BMP280;9930;49.240;8.548;2024-03-08T13:00:12;99861.81;;;12.89
19568;BMP280;9930;49.240;8.548;2024-03-08T13:02:47;99861.00;;;12.90
19568;BMP280;9930;49.240;8.548;2024-03-08T13:05:13;99845.53;;;12.84
19568;BMP280;9930;49.240;8.548;2024-03-08T13:07:42;99839.56;;;12.85
19568;BMP280;9930;49.240;8.548;2024-03-08T13:10:15;99837.13;;;12.91
19568;BMP280;9930;49.240;8.548;2024-03-08T13:12:44;99839.88;;;13.02
19568;BMP280;9930;49.240;8.548;2024-03-08T13:15:11;99830.44;;;13.00
19568;BMP280;9930;49.240;8.548;2024-03-08T13:17:41;99826.22;;;13.02
19568;BMP280;9930;49.240;8.548;2024-03-08T13:20:08;99826.41;;;13.12
19568;BMP280;9930;49.240;8.548;2024-03-08T13:22:35;99820.50;;;13.15
19568;BMP280;9930;49.240;8.548;2024-03-08T13:25:02;99789.63;;;13.07
19568;BMP280;9930;49.240;8.548;2024-03-08T13:27:28;99808.69;;;13.21
19568;BMP280;9930;49.240;8.548;2024-03-08T13:29:54;99797.56;;;13.19
19568;BMP280;9930;49.240;8.548;2024-03-08T13:32:20;99802.75;;;13.24
19568;BMP280;9930;49.240;8.548;2024-03-08T13:34:46;99807.19;;;13.34
19568;BMP280;9930;49.240;8.548;2024-03-08T13:37:13;99783.13;;;13.24
19568;BMP280;9930;49.240;8.548;2024-03-08T13:39:42;99792.75;;;13.38
19568;BMP280;9930;49.240;8.548;2024-03-08T13:42:15;99786.75;;;13.37
19568;BMP280;9930;49.240;8.548;2024-03-08T13:44:46;99785.06;;;13.38
19568;BMP280;9930;49.240;8.548;2024-03-08T13:47:16;99764.47;;;13.32
19568;BMP280;9930;49.240;8.548;2024-03-08T13:49:43;99766.31;;;13.40
19568;BMP280;9930;49.240;8.548;2024-03-08T13:52:10;99750.03;;;13.37
19568;BMP280;9930;49.240;8.548;2024-03-08T13:54:36;99760.41;;;13.44
19568;BMP280;9930;49.240;8.548;2024-03-08T13:57:04;99744.09;;;13.39
19568;BMP280;9930;49.240;8.548;2024-03-08T13:59:31;99739.00;;;13.41
19568;BMP280;9930;49.240;8.548;2024-03-08T14:01:59;99727.09;;;13.44
19568;BMP280;9930;49.240;8.548;2024-03-08T14:04:28;99722.88;;;13.48
19568;BMP280;9930;49.240;8.548;2024-03-08T14:06:56;99718.63;;;13.48
19568;BMP280;9930;49.240;8.548;2024-03-08T14:09:29;99722.13;;;13.55
19568;BMP280;9930;49.240;8.548;2024-03-08T14:11:56;99720.44;;;13.55
19568;BMP280;9930;49.240;8.548;2024-03-08T14:14:22;99728.22;;;13.63
19568;BMP280;9930;49.240;8.548;2024-03-08T14:16:49;99721.44;;;13.65
19568;BMP280;9930;49.240;8.548;2024-03-08T14:19:21;99718.06;;;13.69
19568;BMP280;9930;49.240;8.548;2024-03-08T14:21:47;99704.34;;;13.64
19568;BMP280;9930;49.240;8.548;2024-03-08T14:24:19;99701.00;;;13.71
19568;BMP280;9930;49.240;8.548;2024-03-08T14:26:45;99668.41;;;13.59
19568;BMP280;9930;49.240;8.548;2024-03-08T14:29:14;99691.66;;;13.73
19568;BMP280;9930;49.240;8.548;2024-03-08T14:31:40;99689.09;;;13.75
19568;BMP280;9930;49.240;8.548;2024-03-08T14:34:07;99691.75;;;13.81
19568;BMP280;9930;49.240;8.548;2024-03-08T14:36:33;99682.34;;;13.81